createdAt,value
2023-05-12T00:00:17.051Z,998.11
2023-05-12T00:01:16.931Z,998.11
2023-05-12T00:02:16.973Z,998.10
2023-05-12T00:03:16.968Z,998.09
2023-05-12T00:04:16.910Z,998.08
2023-05-12T00:05:16.913Z,998.11
2023-05-12T00:06:16.897Z,998.12
2023-05-12T00:07:16.866Z,998.06
2023-05-12T00:08:16.931Z,998.08
2023-05-12T00:09:16.866Z,998.07
2023-05-12T00:10:16.870Z,998.09
2023-05-12T00:11:16.842Z,998.09
2023-05-12T00:12:16.844Z,998.08
2023-05-12T00:13:16.834Z,998.12
2023-05-12T00:14:17.857Z,998.09
2023-05-12T00:15:16.812Z,998.06
2023-05-12T00:16:16.826Z,998.07
2023-05-12T00:17:16.828Z,998.06
2023-05-12T00:18:16.789Z,998.11
2023-05-12T00:19:17.309Z,998.04
2023-05-12T00:20:16.933Z,998.08
2023-05-12T00:21:16.797Z,998.07
2023-05-12T00:22:16.762Z,998.04
2023-05-12T00:23:16.754Z,998.05
2023-05-12T00:24:16.758Z,998.10
2023-05-12T00:25:16.779Z,998.07
2023-05-12T00:26:16.751Z,998.06
2023-05-12T00:27:16.754Z,998.10
2023-05-12T00:28:16.726Z,998.08
2023-05-12T00:29:17.712Z,998.03
2023-05-12T00:30:16.786Z,998.07
2023-05-12T00:31:16.790Z,998.07
2023-05-12T00:32:16.698Z,998.05
2023-05-12T00:33:16.692Z,998.07
2023-05-12T00:34:16.723Z,998.04
2023-05-12T00:35:16.692Z,997.97
2023-05-12T00:36:16.749Z,997.99
2023-05-12T00:37:16.685Z,997.99
2023-05-12T00:38:16.656Z,997.97
2023-05-12T00:39:16.654Z,997.95
2023-05-12T00:40:16.754Z,997.99
2023-05-12T00:41:16.642Z,997.92
2023-05-12T00:42:16.672Z,997.89
2023-05-12T00:43:16.634Z,997.87
2023-05-12T00:44:16.662Z,997.90
2023-05-12T00:45:16.624Z,997.86
2023-05-12T00:46:16.626Z,997.95
2023-05-12T00:47:16.656Z,997.95
2023-05-12T00:48:16.602Z,997.92
2023-05-12T00:49:16.697Z,997.94
2023-05-12T00:50:16.628Z,997.98
2023-05-12T00:51:16.587Z,997.95
2023-05-12T00:52:16.596Z,997.95
2023-05-12T00:53:16.573Z,997.92
2023-05-12T00:54:16.592Z,997.98
2023-05-12T00:55:16.607Z,997.97
2023-05-12T00:56:16.572Z,997.98
2023-05-12T00:57:16.536Z,997.96
2023-05-12T00:58:16.607Z,997.98
2023-05-12T00:59:16.572Z,997.91
2023-05-12T01:00:16.549Z,997.97
2023-05-12T01:01:16.650Z,997.97
2023-05-12T01:02:16.558Z,998.00
2023-05-12T01:03:16.568Z,997.99
2023-05-12T01:04:16.528Z,997.97
2023-05-12T01:05:16.496Z,997.99
2023-05-12T01:06:16.518Z,998.00
2023-05-12T01:07:16.499Z,997.96
2023-05-12T01:08:16.471Z,998.05
2023-05-12T01:09:16.500Z,998.02
2023-05-12T01:10:16.517Z,998.07
2023-05-12T01:11:16.480Z,998.06
2023-05-12T01:12:16.448Z,998.04
2023-05-12T01:13:16.472Z,998.03
2023-05-12T01:14:16.460Z,998.11
2023-05-12T01:15:16.433Z,998.11
2023-05-12T01:16:16.457Z,998.07
2023-05-12T01:17:16.453Z,998.07
2023-05-12T01:18:16.439Z,997.99
2023-05-12T01:19:16.540Z,998.05
2023-05-12T01:20:16.439Z,998.07
2023-05-12T01:21:16.400Z,998.06
2023-05-12T01:22:16.384Z,998.10
2023-05-12T01:23:16.377Z,998.00
2023-05-12T01:24:16.390Z,998.04
2023-05-12T01:25:16.422Z,998.05
2023-05-12T01:26:16.353Z,998.07
2023-05-12T01:27:16.355Z,998.10
2023-05-12T01:28:16.341Z,998.08
2023-05-12T01:29:16.339Z,998.13
2023-05-12T01:30:16.376Z,998.09
2023-05-12T01:31:16.792Z,998.07
2023-05-12T01:32:16.327Z,998.13
2023-05-12T01:33:16.299Z,998.11
2023-05-12T01:34:16.369Z,998.12
2023-05-12T01:35:16.305Z,998.10
2023-05-12T01:36:16.366Z,998.14
2023-05-12T01:37:16.302Z,998.09
2023-05-12T01:38:16.319Z,998.11
2023-05-12T01:39:16.255Z,998.11
2023-05-12T01:40:16.303Z,998.14
2023-05-12T01:41:16.274Z,998.14
2023-05-12T01:42:16.244Z,998.15
2023-05-12T01:43:16.261Z,998.07
2023-05-12T01:44:16.283Z,998.13
2023-05-12T01:45:16.241Z,998.13
2023-05-12T01:46:16.316Z,998.14
2023-05-12T01:47:16.248Z,998.11
2023-05-12T01:48:16.240Z,998.16
2023-05-12T01:49:16.187Z,998.13
2023-05-12T01:50:16.208Z,998.19
2023-05-12T01:51:16.184Z,998.17
2023-05-12T01:52:16.227Z,998.12
2023-05-12T01:53:16.181Z,998.14
2023-05-12T01:54:16.187Z,998.16
2023-05-12T01:55:16.168Z,998.19
2023-05-12T01:56:16.165Z,998.19
2023-05-12T01:57:16.169Z,998.17
2023-05-12T01:58:16.147Z,998.18
2023-05-12T01:59:16.158Z,998.18
2023-05-12T02:00:16.122Z,998.20
2023-05-12T02:01:16.183Z,998.18
2023-05-12T02:02:16.248Z,998.17
2023-05-12T02:03:16.149Z,998.24
2023-05-12T02:04:16.376Z,998.18
2023-05-12T02:05:16.091Z,998.23
2023-05-12T02:06:16.142Z,998.18
2023-05-12T02:07:16.079Z,998.21
2023-05-12T02:08:16.176Z,998.22
2023-05-12T02:09:16.100Z,998.21
2023-05-12T02:10:16.102Z,998.23
2023-05-12T02:11:16.060Z,998.20
2023-05-12T02:12:16.073Z,998.25
2023-05-12T02:13:16.147Z,998.20
2023-05-12T02:14:16.026Z,998.22
2023-05-12T02:15:16.034Z,998.25
2023-05-12T02:16:16.016Z,998.25
2023-05-12T02:17:16.080Z,998.28
2023-05-12T02:18:16.057Z,998.25
2023-05-12T02:19:15.993Z,998.24
2023-05-12T02:20:15.988Z,998.22
2023-05-12T02:21:16.042Z,998.23
2023-05-12T02:22:15.996Z,998.23
2023-05-12T02:23:16.010Z,998.25
2023-05-12T02:24:16.005Z,998.28
2023-05-12T02:25:16.097Z,998.26
2023-05-12T02:26:16.724Z,998.27
2023-05-12T02:27:15.958Z,998.30
2023-05-12T02:28:15.973Z,998.33
2023-05-12T02:29:15.927Z,998.28
2023-05-12T02:30:15.948Z,998.33
2023-05-12T02:31:15.929Z,998.30
2023-05-12T02:32:15.935Z,998.30
2023-05-12T02:33:15.924Z,998.30
2023-05-12T02:34:15.901Z,998.30
2023-05-12T02:35:15.911Z,998.37
2023-05-12T02:36:15.909Z,998.28
2023-05-12T02:37:15.944Z,998.29
2023-05-12T02:38:15.899Z,998.34
2023-05-12T02:39:15.907Z,998.37
2023-05-12T02:40:15.870Z,998.35
2023-05-12T02:41:15.828Z,998.28
2023-05-12T02:42:15.854Z,998.31
2023-05-12T02:43:15.831Z,998.24
2023-05-12T02:44:15.880Z,998.31
2023-05-12T02:45:15.898Z,998.36
2023-05-12T02:46:16.926Z,998.30
2023-05-12T02:47:15.837Z,998.35
2023-05-12T02:48:15.822Z,998.33
2023-05-12T02:49:15.808Z,998.32
2023-05-12T02:50:15.798Z,998.36
2023-05-12T02:51:15.802Z,998.29
2023-05-12T02:52:15.774Z,998.32
2023-05-12T02:53:15.803Z,998.32
2023-05-12T02:54:16.789Z,998.35
2023-05-12T02:55:15.770Z,998.31
2023-05-12T02:56:15.776Z,998.32
2023-05-12T02:57:15.732Z,998.37
2023-05-12T02:58:15.780Z,998.37
2023-05-12T02:59:15.740Z,998.37
2023-05-12T03:00:15.739Z,998.38
2023-05-12T03:01:15.752Z,998.41
2023-05-12T03:02:15.760Z,998.36
2023-05-12T03:03:15.915Z,998.36
2023-05-12T03:04:15.727Z,998.35
2023-05-12T03:05:15.721Z,998.36
2023-05-12T03:06:15.696Z,998.39
2023-05-12T03:07:15.727Z,998.38
2023-05-12T03:08:15.683Z,998.38
2023-05-12T03:09:15.699Z,998.40
2023-05-12T03:10:15.667Z,998.39
2023-05-12T03:11:15.663Z,998.33
2023-05-12T03:12:15.664Z,998.39
2023-05-12T03:13:15.640Z,998.39
2023-05-12T03:14:15.640Z,998.39
2023-05-12T03:15:15.627Z,998.36
2023-05-12T03:16:16.474Z,998.31
2023-05-12T03:17:15.755Z,998.37
2023-05-12T03:18:15.595Z,998.34
2023-05-12T03:19:15.620Z,998.33
2023-05-12T03:20:15.576Z,998.39
2023-05-12T03:21:15.590Z,998.34
2023-05-12T03:22:15.647Z,998.37
2023-05-12T03:23:15.580Z,998.39
2023-05-12T03:24:15.572Z,998.39
2023-05-12T03:25:15.559Z,998.42
2023-05-12T03:26:15.594Z,998.38
2023-05-12T03:27:15.650Z,998.45
2023-05-12T03:28:15.534Z,998.41
2023-05-12T03:29:15.558Z,998.43
2023-05-12T03:30:15.508Z,998.43
2023-05-12T03:31:15.572Z,998.46
2023-05-12T03:32:15.520Z,998.44
2023-05-12T03:33:15.552Z,998.47
2023-05-12T03:34:15.493Z,998.44
2023-05-12T03:35:15.503Z,998.43
2023-05-12T03:36:15.496Z,998.42
2023-05-12T03:37:15.528Z,998.47
2023-05-12T03:38:15.520Z,998.47
2023-05-12T03:39:15.475Z,998.40
2023-05-12T03:40:15.512Z,998.49
2023-05-12T03:41:15.478Z,998.42
2023-05-12T03:42:15.486Z,998.44
2023-05-12T03:43:15.491Z,998.53
2023-05-12T03:44:15.496Z,998.52
2023-05-12T03:45:15.484Z,998.50
2023-05-12T03:46:15.577Z,998.50
2023-05-12T03:47:15.438Z,998.47
2023-05-12T03:48:15.478Z,998.52
2023-05-12T03:49:15.410Z,998.47
2023-05-12T03:50:15.470Z,998.51
2023-05-12T03:51:15.404Z,998.53
2023-05-12T03:52:15.392Z,998.52
2023-05-12T03:53:15.414Z,998.53
2023-05-12T03:54:15.366Z,998.53
2023-05-12T03:55:15.387Z,998.51
2023-05-12T03:56:15.353Z,998.51
2023-05-12T03:57:15.350Z,998.52
2023-05-12T03:58:15.369Z,998.53
2023-05-12T03:59:15.328Z,998.49
2023-05-12T04:00:15.342Z,998.49
2023-05-12T04:01:49.027Z,998.51
2023-05-12T04:02:15.462Z,998.49
2023-05-12T04:03:15.470Z,998.49
2023-05-12T04:04:48.760Z,998.49
2023-05-12T04:05:47.729Z,998.47
2023-05-12T04:06:47.715Z,998.52
2023-05-12T04:07:47.758Z,998.55
2023-05-12T04:08:48.708Z,998.48
2023-05-12T04:09:47.696Z,998.49
2023-05-12T04:10:48.732Z,998.52
2023-05-12T04:11:15.266Z,998.61
2023-05-12T04:12:48.683Z,998.55
2023-05-12T04:13:15.215Z,998.55
2023-05-12T04:14:47.740Z,998.52
2023-05-12T04:15:48.679Z,998.55
2023-05-12T04:16:15.230Z,998.57
2023-05-12T04:17:48.704Z,998.59
2023-05-12T04:18:15.977Z,998.62
2023-05-12T04:19:15.172Z,998.54
2023-05-12T04:20:15.205Z,998.58
2023-05-12T04:21:15.211Z,998.63
2023-05-12T04:22:15.191Z,998.64
2023-05-12T04:23:15.182Z,998.60
2023-05-12T04:24:15.177Z,998.59
2023-05-12T04:25:15.169Z,998.62
2023-05-12T04:26:15.153Z,998.66
2023-05-12T04:27:15.175Z,998.64
2023-05-12T04:28:15.175Z,998.69
2023-05-12T04:29:15.112Z,998.60
2023-05-12T04:30:15.109Z,998.60
2023-05-12T04:31:15.126Z,998.63
2023-05-12T04:32:15.182Z,998.57
2023-05-12T04:33:15.126Z,998.59
2023-05-12T04:34:15.146Z,998.63
2023-05-12T04:35:15.180Z,998.64
2023-05-12T04:36:15.068Z,998.68
2023-05-12T04:37:15.073Z,998.72
2023-05-12T04:38:15.060Z,998.74
2023-05-12T04:39:15.962Z,998.78
2023-05-12T04:40:15.045Z,998.73
2023-05-12T04:41:15.075Z,998.74
2023-05-12T04:42:15.040Z,998.71
2023-05-12T04:44:16.162Z,998.83
2023-05-12T04:45:15.028Z,998.78
2023-05-12T04:46:15.059Z,998.84
2023-05-12T04:47:15.116Z,998.79
2023-05-12T04:48:14.986Z,998.81
2023-05-12T04:49:14.995Z,998.87
2023-05-12T04:50:14.998Z,998.76
2023-05-12T04:51:15.172Z,998.85
2023-05-12T04:52:14.979Z,998.79
2023-05-12T04:53:14.939Z,998.74
2023-05-12T04:54:14.992Z,998.83
2023-05-12T04:55:14.984Z,998.83
2023-05-12T04:56:14.945Z,998.83
2023-05-12T04:57:14.989Z,998.82
2023-05-12T04:58:17.401Z,998.78
2023-05-12T04:59:14.915Z,998.86
2023-05-12T05:00:14.930Z,998.86
2023-05-12T05:01:15.004Z,998.91
2023-05-12T05:02:14.970Z,998.94
2023-05-12T05:03:14.949Z,998.91
2023-05-12T05:04:14.916Z,998.95
2023-05-12T05:05:14.873Z,998.88
2023-05-12T05:06:14.961Z,998.99
2023-05-12T05:07:14.917Z,998.96
2023-05-12T05:08:15.002Z,999.03
2023-05-12T05:09:14.853Z,999.08
2023-05-12T05:10:14.935Z,999.00
2023-05-12T05:11:14.953Z,998.98
2023-05-12T05:12:14.828Z,999.12
2023-05-12T05:13:14.837Z,999.05
2023-05-12T05:14:14.809Z,999.05
2023-05-12T05:15:14.812Z,999.05
2023-05-12T05:16:14.944Z,999.09
2023-05-12T05:17:14.807Z,999.11
2023-05-12T05:18:14.849Z,999.12
2023-05-12T05:19:20.905Z,999.11
2023-05-12T05:20:16.912Z,999.12
2023-05-12T05:21:14.845Z,999.15
2023-05-12T05:22:14.808Z,999.16
2023-05-12T05:23:14.773Z,999.20
2023-05-12T05:24:15.155Z,999.17
2023-05-12T05:25:14.780Z,999.21
2023-05-12T05:26:14.755Z,999.20
2023-05-12T05:27:15.490Z,999.18
2023-05-12T05:28:14.771Z,999.20
2023-05-12T05:29:14.754Z,999.25
2023-05-12T05:30:14.792Z,999.19
2023-05-12T05:31:14.767Z,999.23
2023-05-12T05:32:14.739Z,999.24
2023-05-12T05:33:14.747Z,999.19
2023-05-12T05:34:14.748Z,999.22
2023-05-12T05:35:14.722Z,999.24
2023-05-12T05:36:14.703Z,999.23
2023-05-12T05:37:14.711Z,999.25
2023-05-12T05:38:14.730Z,999.32
2023-05-12T05:39:14.696Z,999.27
2023-05-12T05:40:14.791Z,999.29
2023-05-12T05:41:14.672Z,999.26
2023-05-12T05:42:14.676Z,999.29
2023-05-12T05:43:14.674Z,999.29
2023-05-12T05:44:14.654Z,999.25
2023-05-12T05:45:14.675Z,999.33
2023-05-12T05:46:14.724Z,999.27
2023-05-12T05:47:14.766Z,999.27
2023-05-12T05:48:14.632Z,999.26
2023-05-12T05:49:14.666Z,999.31
2023-05-12T05:50:14.619Z,999.27
2023-05-12T05:51:14.620Z,999.28
2023-05-12T05:52:14.620Z,999.29
2023-05-12T05:53:14.631Z,999.33
2023-05-12T05:54:14.641Z,999.25
2023-05-12T05:55:14.601Z,999.32
2023-05-12T05:56:14.589Z,999.30
2023-05-12T05:57:14.583Z,999.29
2023-05-12T05:58:14.600Z,999.32
2023-05-12T05:59:14.554Z,999.28
2023-05-12T06:00:14.536Z,999.29
2023-05-12T06:01:14.594Z,999.30
2023-05-12T06:02:15.894Z,999.33
2023-05-12T06:03:15.588Z,999.28
2023-05-12T06:04:14.544Z,999.37
2023-05-12T06:05:14.645Z,999.34
2023-05-12T06:06:14.542Z,999.33
2023-05-12T06:07:14.519Z,999.31
2023-05-12T06:08:14.509Z,999.40
2023-05-12T06:09:14.532Z,999.37
2023-05-12T06:10:14.526Z,999.35
2023-05-12T06:11:15.976Z,999.35
2023-05-12T06:12:14.535Z,999.35
2023-05-12T06:13:14.480Z,999.44
2023-05-12T06:14:14.484Z,999.42
2023-05-12T06:15:14.469Z,999.43
2023-05-12T06:16:14.506Z,999.43
2023-05-12T06:17:14.472Z,999.42
2023-05-12T06:18:14.473Z,999.46
2023-05-12T06:19:14.492Z,999.46
2023-05-12T06:20:14.421Z,999.48
2023-05-12T06:21:14.421Z,999.44
2023-05-12T06:22:14.542Z,999.50
2023-05-12T06:23:14.408Z,999.44
2023-05-12T06:24:14.440Z,999.47
2023-05-12T06:25:14.400Z,999.51
2023-05-12T06:26:14.389Z,999.46
2023-05-12T06:27:14.395Z,999.44
2023-05-12T06:28:14.379Z,999.51
2023-05-12T06:29:14.383Z,999.48
2023-05-12T06:30:15.935Z,999.49
2023-05-12T06:31:15.388Z,999.52
2023-05-12T06:32:14.487Z,999.44
2023-05-12T06:33:14.372Z,999.46
2023-05-12T06:34:14.358Z,999.45
2023-05-12T06:35:14.334Z,999.44
2023-05-12T06:36:14.384Z,999.48
2023-05-12T06:37:14.344Z,999.49
2023-05-12T06:38:14.384Z,999.48
2023-05-12T06:39:14.319Z,999.45
2023-05-12T06:40:14.330Z,999.50
2023-05-12T06:41:15.363Z,999.51
2023-05-12T06:42:14.894Z,999.51
2023-05-12T06:43:14.385Z,999.52
2023-05-12T06:44:14.305Z,999.51
2023-05-12T06:45:14.309Z,999.49
2023-05-12T06:46:14.342Z,999.53
2023-05-12T06:47:14.307Z,999.47
2023-05-12T06:48:14.277Z,999.53
2023-05-12T06:49:14.280Z,999.55
2023-05-12T06:50:14.260Z,999.50
2023-05-12T06:51:14.286Z,999.55
2023-05-12T06:52:14.293Z,999.55
2023-05-12T06:53:14.254Z,999.58
2023-05-12T06:54:14.227Z,999.59
2023-05-12T06:55:14.231Z,999.54
2023-05-12T06:56:14.239Z,999.54
2023-05-12T06:57:14.238Z,999.50
2023-05-12T06:58:14.226Z,999.51
2023-05-12T06:59:14.239Z,999.49
2023-05-12T07:00:14.216Z,999.52
2023-05-12T07:01:14.209Z,999.56
2023-05-12T07:02:14.184Z,999.56
2023-05-12T07:03:14.284Z,999.53
2023-05-12T07:04:14.221Z,999.55
2023-05-12T07:05:14.162Z,999.51
2023-05-12T07:06:14.181Z,999.52
2023-05-12T07:07:14.167Z,999.54
2023-05-12T07:08:14.158Z,999.53
2023-05-12T07:09:14.169Z,999.52
2023-05-12T07:10:14.293Z,999.56
2023-05-12T07:11:14.126Z,999.54
2023-05-12T07:12:14.112Z,999.53
2023-05-12T07:13:14.162Z,999.54
2023-05-12T07:14:14.127Z,999.53
2023-05-12T07:15:14.095Z,999.51
2023-05-12T07:16:14.162Z,999.48
2023-05-12T07:17:14.092Z,999.49
2023-05-12T07:18:14.082Z,999.53
2023-05-12T07:19:14.144Z,999.48
2023-05-12T07:20:14.088Z,999.48
2023-05-12T07:21:14.120Z,999.50
2023-05-12T07:22:14.540Z,999.55
2023-05-12T07:23:14.099Z,999.57
2023-05-12T07:24:14.054Z,999.51
2023-05-12T07:25:14.087Z,999.53
2023-05-12T07:26:14.100Z,999.48
2023-05-12T07:27:14.054Z,999.48
2023-05-12T07:28:14.044Z,999.51
2023-05-12T07:29:14.209Z,999.43
2023-05-12T07:30:14.034Z,999.43
2023-05-12T07:31:14.056Z,999.43
2023-05-12T07:32:14.029Z,999.42
2023-05-12T07:33:14.011Z,999.43
2023-05-12T07:34:13.978Z,999.43
2023-05-12T07:35:14.958Z,999.44
2023-05-12T07:36:13.961Z,999.52
2023-05-12T07:37:14.001Z,999.45
2023-05-12T07:38:13.951Z,999.40
2023-05-12T07:39:14.011Z,999.45
2023-05-12T07:40:13.984Z,999.51
2023-05-12T07:41:13.946Z,999.41
2023-05-12T07:42:13.976Z,999.46
2023-05-12T07:43:13.973Z,999.41
2023-05-12T07:44:13.914Z,999.41
2023-05-12T07:45:13.925Z,999.43
2023-05-12T07:46:13.888Z,999.43
2023-05-12T07:47:13.929Z,999.39
2023-05-12T07:48:13.949Z,999.43
2023-05-12T07:49:13.894Z,999.39
2023-05-12T07:50:13.903Z,999.43
2023-05-12T07:51:13.888Z,999.31
2023-05-12T07:52:13.960Z,999.40
2023-05-12T07:53:13.886Z,999.40
2023-05-12T07:54:13.846Z,999.34
2023-05-12T07:55:13.858Z,999.37
2023-05-12T07:56:13.866Z,999.37
2023-05-12T07:57:13.861Z,999.37
2023-05-12T07:58:13.971Z,999.38
2023-05-12T07:59:13.809Z,999.40
2023-05-12T08:00:13.854Z,999.34
2023-05-12T08:01:13.839Z,999.37
2023-05-12T08:02:13.826Z,999.31
2023-05-12T08:03:13.869Z,999.36
2023-05-12T08:04:13.874Z,999.36
2023-05-12T08:05:13.837Z,999.37
2023-05-12T08:06:13.790Z,999.39
2023-05-12T08:07:13.776Z,999.36
2023-05-12T08:08:13.813Z,999.31
2023-05-12T08:09:13.759Z,999.36
2023-05-12T08:10:13.843Z,999.33
2023-05-12T08:11:13.755Z,999.33
2023-05-12T08:12:13.748Z,999.26
2023-05-12T08:13:13.736Z,999.27
2023-05-12T08:14:13.755Z,999.24
2023-05-12T08:15:13.720Z,999.17
2023-05-12T08:16:13.727Z,999.24
2023-05-12T08:17:13.793Z,999.21
2023-05-12T08:18:13.769Z,999.24
2023-05-12T08:19:13.821Z,999.22
2023-05-12T08:20:13.706Z,999.25
2023-05-12T08:21:13.692Z,999.23
2023-05-12T08:22:13.709Z,999.26
2023-05-12T08:23:13.680Z,999.20
2023-05-12T08:24:13.713Z,999.16
2023-05-12T08:25:15.429Z,999.23
2023-05-12T08:26:13.650Z,999.15
2023-05-12T08:27:13.656Z,999.16
2023-05-12T08:28:13.642Z,999.18
2023-05-12T08:29:13.827Z,999.20
2023-05-12T08:30:13.724Z,999.20
2023-05-12T08:31:14.705Z,999.18
2023-05-12T08:32:13.629Z,999.20
2023-05-12T08:33:13.609Z,999.21
2023-05-12T08:34:13.641Z,999.21
2023-05-12T08:35:13.696Z,999.16
2023-05-12T08:36:13.599Z,999.17
2023-05-12T08:37:13.602Z,999.17
2023-05-12T08:38:13.600Z,999.21
2023-05-12T08:39:13.588Z,999.12
2023-05-12T08:40:13.590Z,999.24
2023-05-12T08:41:13.634Z,999.14
2023-05-12T08:42:13.572Z,999.15
2023-05-12T08:43:13.552Z,999.21
2023-05-12T08:44:13.562Z,999.15
2023-05-12T08:45:13.618Z,999.17
2023-05-12T08:46:13.821Z,999.18
2023-05-12T08:47:13.534Z,999.21
2023-05-12T08:48:13.609Z,999.14
2023-05-12T08:49:13.512Z,999.23
2023-05-12T08:50:13.534Z,999.21
2023-05-12T08:51:13.529Z,999.17
2023-05-12T08:52:13.530Z,999.18
2023-05-12T08:53:13.557Z,999.17
2023-05-12T08:54:13.498Z,999.11
2023-05-12T08:55:13.560Z,999.13
2023-05-12T08:57:14.521Z,999.10
2023-05-12T08:58:13.559Z,999.10
2023-05-12T08:59:13.459Z,999.13
2023-05-12T09:00:13.457Z,999.09
2023-05-12T09:01:13.578Z,999.10
2023-05-12T09:02:13.722Z,999.10
2023-05-12T09:03:13.491Z,999.10
2023-05-12T09:04:13.498Z,999.08
2023-05-12T09:05:13.472Z,999.06
2023-05-12T09:06:13.470Z,999.03
2023-05-12T09:07:13.428Z,999.09
2023-05-12T09:08:13.437Z,999.09
2023-05-12T09:09:13.417Z,999.11
2023-05-12T09:10:22.477Z,999.09
2023-05-12T09:11:15.444Z,999.08
2023-05-12T09:12:14.955Z,999.13
2023-05-12T09:13:13.416Z,999.06
2023-05-12T09:14:13.391Z,999.13
2023-05-12T09:15:13.386Z,999.06
2023-05-12T09:16:13.418Z,999.03
2023-05-12T09:17:13.363Z,999.10
2023-05-12T09:18:13.384Z,999.13
2023-05-12T09:19:13.403Z,999.17
2023-05-12T09:20:27.919Z,999.13
2023-05-12T09:21:15.389Z,999.16
2023-05-12T09:22:13.376Z,999.17
2023-05-12T09:23:13.345Z,999.07
2023-05-12T09:24:13.472Z,999.16
2023-05-12T09:25:14.716Z,999.13
2023-05-12T09:26:14.329Z,999.11
2023-05-12T09:27:13.308Z,999.11
2023-05-12T09:28:13.410Z,999.10
2023-05-12T09:29:20.787Z,999.09
2023-05-12T09:30:15.325Z,999.09
2023-05-12T09:31:14.676Z,999.08
2023-05-12T09:32:14.288Z,999.13
2023-05-12T09:33:13.355Z,999.14
2023-05-12T09:34:13.262Z,999.11
2023-05-12T09:35:14.298Z,999.10
2023-05-12T09:36:13.281Z,999.09
2023-05-12T09:37:15.177Z,999.17
2023-05-12T09:38:14.248Z,999.16
2023-05-12T09:39:13.251Z,999.13
2023-05-12T09:40:13.238Z,999.14
2023-05-12T09:41:13.265Z,999.11
2023-05-12T09:42:13.254Z,999.25
2023-05-12T09:43:15.351Z,999.23
2023-05-12T09:44:14.216Z,999.20
2023-05-12T09:45:13.241Z,999.21
2023-05-12T09:46:13.252Z,999.21
2023-05-12T09:47:13.191Z,999.10
2023-05-12T09:48:13.213Z,999.24
2023-05-12T09:49:14.251Z,999.15
2023-05-12T09:50:13.445Z,998.97
2023-05-12T09:51:13.207Z,999.07
2023-05-12T09:52:13.170Z,999.02
2023-05-12T09:53:13.165Z,998.99
2023-05-12T09:54:13.165Z,999.00
2023-05-12T09:55:13.165Z,998.93
2023-05-12T09:56:13.145Z,998.99
2023-05-12T09:57:13.187Z,999.23
2023-05-12T09:58:13.194Z,999.16
2023-05-12T09:59:13.115Z,999.19
2023-05-12T10:00:21.501Z,999.13
2023-05-12T10:01:22.643Z,999.12
2023-05-12T10:02:15.179Z,999.00
2023-05-12T10:03:13.188Z,999.09
2023-05-12T10:04:13.109Z,998.94
2023-05-12T10:05:13.186Z,999.10
2023-05-12T10:06:13.186Z,999.04
2023-05-12T10:07:13.112Z,999.01
2023-05-12T10:08:13.073Z,999.03
2023-05-12T10:09:13.063Z,999.07
2023-05-12T10:10:13.043Z,999.10
2023-05-12T10:11:13.045Z,999.00
2023-05-12T10:12:13.058Z,998.97
2023-05-12T10:13:13.103Z,999.06
2023-05-12T10:14:13.127Z,999.00
2023-05-12T10:15:13.032Z,998.95
2023-05-12T10:16:13.136Z,998.93
2023-05-12T10:17:13.081Z,998.86
2023-05-12T10:18:13.036Z,998.93
2023-05-12T10:19:13.024Z,998.82
2023-05-12T10:20:13.006Z,998.86
2023-05-12T10:21:13.017Z,998.81
2023-05-12T10:22:13.065Z,998.78
2023-05-12T10:23:12.974Z,998.79
2023-05-12T10:24:12.989Z,998.84
2023-05-12T10:25:12.978Z,998.82
2023-05-12T10:26:12.945Z,998.89
2023-05-12T10:27:12.964Z,998.84
2023-05-12T10:28:12.941Z,998.81
2023-05-12T10:29:13.001Z,998.81
2023-05-12T10:30:12.939Z,998.80
2023-05-12T10:31:13.044Z,998.82
2023-05-12T10:32:12.930Z,998.87
2023-05-12T10:33:12.919Z,998.81
2023-05-12T10:34:12.923Z,998.79
2023-05-12T10:35:12.895Z,998.78
2023-05-12T10:36:12.916Z,998.78
2023-05-12T10:37:12.868Z,998.76
2023-05-12T10:38:12.962Z,998.73
2023-05-12T10:39:12.908Z,998.71
2023-05-12T10:40:12.876Z,998.71
2023-05-12T10:41:12.870Z,998.70
2023-05-12T10:42:12.882Z,998.75
2023-05-12T10:43:13.066Z,998.71
2023-05-12T10:44:12.865Z,998.73
2023-05-12T10:45:12.824Z,998.70
2023-05-12T10:46:12.878Z,998.72
2023-05-12T10:47:13.249Z,998.59
2023-05-12T10:48:13.852Z,998.70
2023-05-12T10:49:12.841Z,998.69
2023-05-12T10:50:12.808Z,998.69
2023-05-12T10:51:12.801Z,998.72
2023-05-12T10:52:12.848Z,998.68
2023-05-12T10:53:12.777Z,998.73
2023-05-12T10:54:12.790Z,998.70
2023-05-12T10:55:12.866Z,998.76
2023-05-12T10:56:13.012Z,998.78
2023-05-12T10:57:15.003Z,998.62
2023-05-12T10:58:15.096Z,998.75
2023-05-12T10:59:13.142Z,998.68
2023-05-12T11:00:13.102Z,998.68
2023-05-12T11:01:13.179Z,998.68
2023-05-12T11:02:13.639Z,998.74
2023-05-12T11:03:13.967Z,998.72
2023-05-12T11:04:13.172Z,998.68
2023-05-12T11:05:13.349Z,998.71
2023-05-12T11:06:14.114Z,998.70
2023-05-12T11:07:14.163Z,998.67
2023-05-12T11:08:14.272Z,998.68
2023-05-12T11:09:13.914Z,998.77
2023-05-12T11:11:13.168Z,998.75
2023-05-12T11:12:12.658Z,998.80
2023-05-12T11:13:12.642Z,998.83
2023-05-12T11:14:12.683Z,998.83
2023-05-12T11:15:12.722Z,998.85
2023-05-12T11:16:12.733Z,998.82
2023-05-12T11:17:12.682Z,998.90
2023-05-12T11:18:12.695Z,998.86
2023-05-12T11:19:12.863Z,998.80
2023-05-12T11:20:12.647Z,998.77
2023-05-12T11:21:12.619Z,998.87
2023-05-12T11:22:12.694Z,998.91
2023-05-12T11:23:12.577Z,998.87
2023-05-12T11:24:13.538Z,998.89
2023-05-12T11:25:12.693Z,998.79
2023-05-12T11:26:12.588Z,998.77
2023-05-12T11:27:12.570Z,998.92
2023-05-12T11:28:12.567Z,998.88
2023-05-12T11:29:12.546Z,999.08
2023-05-12T11:30:12.560Z,999.06
2023-05-12T11:31:12.630Z,999.05
2023-05-12T11:32:12.601Z,998.96
2023-05-12T11:33:12.570Z,998.91
2023-05-12T11:34:13.603Z,998.89
2023-05-12T11:35:13.513Z,998.90
2023-05-12T11:36:12.538Z,998.83
2023-05-12T11:37:12.495Z,998.80
2023-05-12T11:38:12.500Z,998.94
2023-05-12T11:39:12.475Z,998.87
2023-05-12T11:40:12.483Z,998.88
2023-05-12T11:41:12.501Z,998.84
2023-05-12T11:42:13.921Z,998.82
2023-05-12T11:43:13.517Z,998.83
2023-05-12T11:44:12.478Z,998.83
2023-05-12T11:45:12.474Z,998.83
2023-05-12T11:46:12.460Z,998.77
2023-05-12T11:47:12.441Z,998.82
2023-05-12T11:48:13.500Z,998.83
2023-05-12T11:49:13.441Z,998.79
2023-05-12T11:50:12.499Z,998.78
2023-05-12T11:51:12.430Z,998.78
2023-05-12T11:52:12.395Z,998.78
2023-05-12T11:53:13.123Z,998.79
2023-05-12T11:54:12.403Z,998.83
2023-05-12T11:55:12.383Z,998.79
2023-05-12T11:56:12.401Z,998.82
2023-05-12T11:57:12.400Z,998.81
2023-05-12T11:58:12.428Z,998.81
2023-05-12T11:59:12.413Z,998.85
2023-05-12T12:00:12.400Z,998.74
2023-05-12T12:01:12.368Z,998.81
2023-05-12T12:02:12.398Z,998.78
2023-05-12T12:03:12.450Z,998.78
2023-05-12T12:04:12.449Z,998.84
2023-05-12T12:05:12.340Z,998.76
2023-05-12T12:06:12.318Z,998.76
2023-05-12T12:07:12.337Z,998.79
2023-05-12T12:08:12.338Z,998.69
2023-05-12T12:09:12.345Z,998.71
2023-05-12T12:10:12.429Z,998.74
2023-05-12T12:11:12.425Z,998.79
2023-05-12T12:12:12.312Z,998.84
2023-05-12T12:13:12.317Z,998.82
2023-05-12T12:14:12.343Z,998.80
2023-05-12T12:15:12.295Z,998.85
2023-05-12T12:16:14.749Z,998.87
2023-05-12T12:17:13.288Z,998.92
2023-05-12T12:18:12.398Z,998.98
2023-05-12T12:19:12.361Z,999.01
2023-05-12T12:20:12.370Z,998.72
2023-05-12T12:21:12.260Z,998.82
2023-05-12T12:22:12.268Z,998.74
2023-05-12T12:23:12.236Z,998.80
2023-05-12T12:24:12.258Z,998.77
2023-05-12T12:25:12.222Z,998.77
2023-05-12T12:26:12.238Z,998.74
2023-05-12T12:27:12.207Z,998.73
2023-05-12T12:28:12.196Z,998.76
2023-05-12T12:29:12.199Z,998.71
2023-05-12T12:30:12.190Z,998.80
2023-05-12T12:31:12.233Z,998.82